Time;durP1;ratioP1;P1;durP2;ratioP2;P2;SDS_P1;SDS_P2;PMS_P1;PMS_P2;Temp;Humidity;BMP_temperature;BMP_pressure;BME280_temperature;BME280_humidity;BME280_pressure;Samples;Min_cycle;Max_cycle;Signal;HPM_P1;HPM_P2
2021/04/25 00:00:01;;;;;;;9.20;2.65;;;9.00;57.10;;;;;;4943433;28;20074;-66
2021/04/25 00:02:26;;;;;;;9.43;3.30;;;9.20;55.60;;;;;;4941467;28;20122;-66
2021/04/25 00:04:52;;;;;;;6.55;1.70;;;9.30;55.10;;;;;;4943801;28;20050;-67
2021/04/25 00:07:19;;;;;;;6.82;2.35;;;9.20;52.40;;;;;;4944409;28;20044;-67
2021/04/25 00:09:45;;;;;;;8.13;2.50;;;9.10;52.90;;;;;;4944065;28;20161;-68
2021/04/25 00:12:11;;;;;;;9.88;3.15;;;9.20;54.00;;;;;;4942852;28;20042;-67
2021/04/25 00:14:37;;;;;;;11.40;5.07;;;9.30;54.00;;;;;;4942036;28;20098;-66
2021/04/25 00:17:03;;;;;;;8.38;1.90;;;9.30;55.30;;;;;;4940892;28;20055;-66
2021/04/25 00:19:30;;;;;;;11.00;2.28;;;9.40;54.50;;;;;;4955306;28;20038;-66
2021/04/25 00:21:55;;;;;;;11.00;1.60;;;9.40;52.70;;;;;;4942903;28;20488;-66
2021/04/25 00:24:21;;;;;;;6.78;1.58;;;9.10;51.90;;;;;;4941566;28;20118;-67
2021/04/25 00:26:47;;;;;;;11.05;1.50;;;8.80;52.00;;;;;;4942475;28;20128;-67
2021/04/25 00:29:13;;;;;;;9.90;2.75;;;8.70;52.40;;;;;;4943766;28;20042;-66
2021/04/25 00:31:39;;;;;;;8.55;2.45;;;8.70;54.30;;;;;;4940519;28;20451;-66
2021/04/25 00:34:05;;;;;;;7.40;2.45;;;8.70;54.30;;;;;;4954297;28;20050;-66
2021/04/25 00:36:32;;;;;;;9.02;4.80;;;8.70;54.30;;;;;;4940786;28;20094;-66
2021/04/25 00:38:58;;;;;;;11.35;3.42;;;8.90;57.40;;;;;;4942498;28;20429;-66
2021/04/25 00:41:23;;;;;;;9.32;1.75;;;9.20;56.70;;;;;;4941508;28;20047;-66
2021/04/25 00:43:49;;;;;;;6.50;1.83;;;9.30;54.60;;;;;;4940622;28;20082;-66
2021/04/25 00:46:15;;;;;;;8.30;1.30;;;9.20;53.60;;;;;;4955126;28;20112;-66
2021/04/25 00:48:41;;;;;;;7.30;1.10;;;9.10;52.40;;;;;;4939862;28;20058;-67
2021/04/25 00:51:11;;;;;;;6.95;1.83;;;8.90;51.90;;;;;;4940751;28;20043;-66
2021/04/25 00:53:37;;;;;;;6.45;1.15;;;8.80;52.90;;;;;;4940918;28;20089;-66
2021/04/25 00:56:03;;;;;;;7.47;2.03;;;8.70;52.90;;;;;;4954832;28;20526;-66
2021/04/25 00:58:29;;;;;;;8.23;1.77;;;8.60;53.00;;;;;;4938453;28;20035;-66
2021/04/25 01:00:55;;;;;;;12.48;2.70;;;8.50;54.10;;;;;;4942393;28;20047;-67
2021/04/25 01:03:23;;;;;;;8.85;3.90;;;8.50;56.30;;;;;;4940653;28;20040;-66
2021/04/25 01:05:52;;;;;;;4.60;1.38;;;8.80;58.60;;;;;;4940331;28;20052;-66
2021/04/25 01:08:18;;;;;;;3.38;1.08;;;8.80;56.70;;;;;;4941930;28;20079;-65
2021/04/25 01:10:44;;;;;;;9.80;1.50;;;8.80;55.50;;;;;;4941346;28;20043;-66
2021/04/25 01:13:10;;;;;;;5.30;1.17;;;8.60;55.10;;;;;;4939060;28;20039;-66
2021/04/25 01:15:36;;;;;;;6.22;1.10;;;8.50;54.70;;;;;;4953790;28;20039;-65
2021/04/25 01:18:01;;;;;;;6.45;1.52;;;8.50;54.60;;;;;;4941015;28;20975;-66
2021/04/25 01:20:27;;;;;;;6.88;1.55;;;8.40;55.00;;;;;;4940922;28;20066;-65
2021/04/25 01:22:53;;;;;;;9.32;1.75;;;8.30;55.70;;;;;;4952676;28;20407;-66
2021/04/25 01:25:22;;;;;;;10.82;1.55;;;8.30;56.00;;;;;;4941725;28;20066;-66
2021/04/25 01:27:48;;;;;;;7.03;1.73;;;8.20;56.20;;;;;;4941690;28;20573;-66
2021/04/25 01:30:18;;;;;;;8.70;1.58;;;8.20;56.40;;;;;;4954191;28;20069;-66
2021/04/25 01:32:45;;;;;;;8.55;1.55;;;8.20;56.50;;;;;;4940175;28;20049;-67
2021/04/25 01:35:21;;;;;;;10.35;1.88;;;8.20;56.00;;;;;;4940725;28;20070;-67
2021/04/25 01:37:54;;;;;;;7.47;1.65;;;8.20;56.60;;;;;;4940394;28;20046;-66
2021/04/25 01:40:21;;;;;;;8.30;2.45;;;8.40;56.40;;;;;;4941504;28;20039;-66
2021/04/25 01:42:47;;;;;;;8.57;1.50;;;8.50;57.50;;;;;;4944116;28;20392;-66
2021/04/25 01:45:17;;;;;;;7.88;1.63;;;8.50;55.80;;;;;;4943155;28;20047;-66
2021/04/25 01:47:45;;;;;;;5.28;0.85;;;8.40;55.00;;;;;;4955256;28;20036;-66
2021/04/25 01:50:11;;;;;;;6.53;1.65;;;8.30;53.70;;;;;;4942377;28;20036;-66
2021/04/25 01:52:36;;;;;;;5.93;1.60;;;8.20;53.50;;;;;;4941447;28;20523;-66
2021/04/25 01:55:03;;;;;;;8.13;1.40;;;8.10;53.60;;;;;;4953637;28;20062;-66
2021/04/25 01:57:29;;;;;;;6.38;2.67;;;8.00;53.50;;;;;;4939770;28;20462;-66
2021/04/25 01:59:55;;;;;;;9.20;2.78;;;8.00;56.20;;;;;;4940608;28;20051;-66
2021/04/25 02:02:21;;;;;;;9.48;3.17;;;8.20;59.30;;;;;;4940387;28;20055;-66
2021/04/25 02:04:47;;;;;;;7.93;1.25;;;8.50;59.80;;;;;;4940129;28;20484;-66
2021/04/25 02:07:13;;;;;;;6.82;2.10;;;8.70;57.60;;;;;;4940315;28;20050;-67
2021/04/25 02:09:39;;;;;;;7.03;2.42;;;8.80;56.70;;;;;;4941065;28;20059;-66
2021/04/25 02:12:05;;;;;;;5.43;1.75;;;9.00;57.30;;;;;;4939493;28;20057;-66
2021/04/25 02:14:31;;;;;;;7.60;1.95;;;9.30;57.40;;;;;;4939762;28;20047;-66
2021/04/25 02:16:57;;;;;;;10.77;2.47;;;9.60;57.30;;;;;;4940119;28;20054;-66
2021/04/25 02:19:22;;;;;;;6.45;1.23;;;9.70;55.70;;;;;;4940655;28;20055;-68
2021/04/25 02:21:48;;;;;;;9.20;2.03;;;9.60;55.30;;;;;;4939956;28;20912;-65
2021/04/25 02:24:14;;;;;;;10.13;1.73;;;9.30;54.80;;;;;;4940826;28;20046;-66
2021/04/25 02:26:41;;;;;;;9.13;1.20;;;9.10;55.30;;;;;;4941447;28;20043;-67
2021/04/25 02:29:06;;;;;;;7.50;2.03;;;8.80;54.90;;;;;;4941011;28;20086;-67
2021/04/25 02:31:32;;;;;;;6.03;2.13;;;8.70;57.50;;;;;;4952229;28;20485;-67
2021/04/25 02:33:58;;;;;;;6.85;1.35;;;8.80;57.90;;;;;;4940219;28;20047;-67
2021/04/25 02:36:24;;;;;;;8.00;1.25;;;9.00;56.80;;;;;;4939786;28;20039;-68
2021/04/25 02:38:50;;;;;;;7.25;1.80;;;9.00;55.00;;;;;;4953420;28;20063;-66
2021/04/25 02:41:17;;;;;;;7.35;1.70;;;8.70;54.80;;;;;;4939612;28;20040;-67
2021/04/25 02:43:42;;;;;;;8.77;1.80;;;8.60;53.90;;;;;;4940169;28;20034;-66
2021/04/25 02:46:08;;;;;;;6.65;1.90;;;8.30;54.00;;;;;;4940717;28;20053;-66
2021/04/25 02:48:34;;;;;;;9.00;1.98;;;8.40;56.60;;;;;;4941829;28;20046;-67
2021/04/25 02:51:00;;;;;;;6.80;2.78;;;8.70;57.90;;;;;;4939343;28;20094;-67
2021/04/25 02:53:26;;;;;;;6.93;2.58;;;8.90;58.70;;;;;;4939523;28;20097;-67
2021/04/25 02:55:51;;;;;;;7.45;3.50;;;9.30;59.70;;;;;;4940981;28;20039;-67
2021/04/25 02:58:17;;;;;;;6.28;1.75;;;9.60;60.30;;;;;;4941115;28;20067;-66
2021/04/25 03:00:44;;;;;;;7.00;2.90;;;9.90;58.30;;;;;;4941992;28;20047;-67
2021/04/25 03:03:10;;;;;;;6.72;1.52;;;10.10;58.60;;;;;;4943188;28;20075;-66
2021/04/25 03:05:36;;;;;;;7.60;1.85;;;10.20;56.60;;;;;;4941924;28;20169;-66
2021/04/25 03:08:02;;;;;;;7.20;1.92;;;10.40;55.10;;;;;;4956851;28;20043;-67
2021/04/25 03:10:29;;;;;;;6.20;2.00;;;10.40;54.40;;;;;;4944108;28;20046;-66
2021/04/25 03:12:55;;;;;;;12.98;3.60;;;10.40;53.70;;;;;;4944505;28;20046;-60
2021/04/25 03:15:22;;;;;;;8.23;1.85;;;10.20;53.60;;;;;;4945165;28;20039;-61
2021/04/25 03:17:48;;;;;;;9.23;1.65;;;10.10;54.60;;;;;;4944411;28;20157;-61
2021/04/25 03:20:17;;;;;;;9.35;2.22;;;9.90;54.10;;;;;;4941741;28;20090;-61
2021/04/25 03:22:44;;;;;;;10.13;1.48;;;9.70;53.10;;;;;;4943591;28;20130;-61
2021/04/25 03:25:11;;;;;;;11.32;2.00;;;9.30;53.10;;;;;;4957233;28;20062;-60
2021/04/25 03:27:37;;;;;;;6.10;1.30;;;9.00;53.10;;;;;;4944417;28;20086;-61
2021/04/25 03:30:06;;;;;;;10.35;1.27;;;8.70;52.40;;;;;;4942883;28;20066;-61
2021/04/25 03:32:32;;;;;;;6.90;1.90;;;8.40;52.20;;;;;;4943376;28;20031;-61
2021/04/25 03:34:58;;;;;;;9.40;1.73;;;8.20;53.40;;;;;;4942705;28;20106;-61
2021/04/25 03:37:24;;;;;;;9.18;1.85;;;8.10;53.70;;;;;;4943148;28;20050;-61
2021/04/25 03:39:50;;;;;;;7.22;2.08;;;8.10;55.90;;;;;;4942980;28;20044;-61
2021/04/25 03:42:16;;;;;;;4.88;2.05;;;8.30;58.40;;;;;;4941824;28;20039;-61
2021/04/25 03:44:41;;;;;;;8.25;2.28;;;8.70;60.40;;;;;;4956383;28;21139;-61
2021/04/25 03:47:07;;;;;;;7.28;1.50;;;9.20;61.10;;;;;;4944189;28;20158;-61
2021/04/25 03:49:33;;;;;;;6.97;1.60;;;9.50;58.30;;;;;;4942142;28;20043;-61
2021/04/25 03:51:59;;;;;;;4.07;1.80;;;9.50;55.60;;;;;;4942066;28;20039;-61
2021/04/25 03:54:25;;;;;;;5.28;1.30;;;9.50;57.70;;;;;;4942465;28;20514;-61
2021/04/25 03:56:52;;;;;;;7.15;1.10;;;9.70;58.10;;;;;;4942004;28;20043;-61
2021/04/25 03:59:18;;;;;;;8.32;1.40;;;9.80;55.50;;;;;;4945067;28;20094;-61
2021/04/25 04:01:44;;;;;;;10.65;2.22;;;9.60;54.10;;;;;;4955700;28;20035;-61
2021/04/25 04:04:10;;;;;;;10.32;2.28;;;9.30;53.20;;;;;;4956300;28;20407;-61
2021/04/25 04:06:36;;;;;;;9.70;1.85;;;9.00;53.50;;;;;;4941444;28;20040;-61
2021/04/25 04:09:01;;;;;;;9.43;1.50;;;8.70;53.30;;;;;;4942144;28;20036;-61
2021/04/25 04:11:27;;;;;;;8.13;1.40;;;8.50;53.70;;;;;;4941650;28;20040;-61
2021/04/25 04:13:55;;;;;;;12.80;1.90;;;8.30;53.90;;;;;;4954551;28;20040;-61
2021/04/25 04:16:20;;;;;;;8.52;1.55;;;8.10;54.20;;;;;;4942723;28;20043;-61
2021/04/25 04:18:46;;;;;;;9.73;1.90;;;8.00;54.90;;;;;;4943623;28;20095;-61
2021/04/25 04:21:12;;;;;;;10.77;1.40;;;7.90;55.20;;;;;;4942301;28;20035;-63
2021/04/25 04:23:38;;;;;;;7.05;1.88;;;7.90;55.30;;;;;;4943011;28;20046;-61
2021/04/25 04:26:04;;;;;;;5.75;1.38;;;7.80;55.10;;;;;;4944062;28;20113;-61
2021/04/25 04:28:30;;;;;;;11.93;1.92;;;7.70;54.50;;;;;;4940476;28;20393;-61
2021/04/25 04:30:55;;;;;;;10.70;1.73;;;7.60;54.60;;;;;;4941973;28;20984;-61
2021/04/25 04:33:21;;;;;;;14.07;1.75;;;7.60;55.00;;;;;;4941649;28;20050;-60
2021/04/25 04:35:47;;;;;;;7.03;1.45;;;7.60;54.80;;;;;;4941522;28;20065;-61
2021/04/25 04:38:13;;;;;;;6.47;1.88;;;7.70;56.70;;;;;;4942161;28;20035;-61
2021/04/25 04:40:39;;;;;;;7.57;1.70;;;8.10;60.00;;;;;;4941690;28;20066;-61
2021/04/25 04:43:04;;;;;;;14.90;1.77;;;8.70;59.60;;;;;;4955291;28;20046;-61
2021/04/25 04:45:30;;;;;;;9.27;1.30;;;9.00;58.10;;;;;;4942862;28;20039;-61
2021/04/25 04:47:57;;;;;;;10.35;1.60;;;9.30;57.80;;;;;;4940991;28;20078;-62
2021/04/25 04:50:23;;;;;;;7.15;1.80;;;9.50;56.30;;;;;;4938233;28;20043;-62
2021/04/25 04:52:49;;;;;;;11.98;1.60;;;9.50;55.90;;;;;;4940271;28;20043;-61
2021/04/25 04:55:15;;;;;;;11.43;2.28;;;9.40;55.30;;;;;;4939752;28;21076;-61
2021/04/25 04:57:41;;;;;;;7.80;1.30;;;9.30;54.60;;;;;;4941249;28;20063;-61
2021/04/25 05:00:08;;;;;;;9.60;1.67;;;9.30;54.90;;;;;;4942199;28;20139;-62
2021/04/25 05:02:34;;;;;;;7.13;1.67;;;9.30;55.20;;;;;;4924302;28;20051;-62
2021/04/25 05:05:01;;;;;;;18.00;2.33;;;9.40;56.70;;;;;;4943433;28;20053;-62
2021/04/25 05:07:26;;;;;;;11.05;2.00;;;9.60;57.30;;;;;;4940694;28;20039;-62
2021/04/25 05:09:52;;;;;;;7.50;1.70;;;9.80;57.40;;;;;;4940978;28;20046;-62
2021/04/25 05:12:18;;;;;;;7.13;1.30;;;9.90;57.20;;;;;;4942432;28;20122;-62
2021/04/25 05:14:45;;;;;;;7.65;1.40;;;9.90;55.20;;;;;;4942537;28;20035;-61
2021/04/25 05:17:11;;;;;;;7.82;1.33;;;9.70;53.80;;;;;;4942076;28;20071;-60
2021/04/25 05:19:37;;;;;;;7.05;1.05;;;9.40;52.50;;;;;;4940185;28;20684;-61
2021/04/25 05:22:03;;;;;;;4.65;1.40;;;9.00;52.30;;;;;;4941144;28;20031;-61
2021/04/25 05:24:29;;;;;;;12.13;1.55;;;8.80;52.60;;;;;;4942648;28;20035;-61
2021/04/25 05:26:55;;;;;;;11.00;1.70;;;8.70;52.60;;;;;;4941306;28;20094;-61
2021/04/25 05:29:21;;;;;;;8.95;1.92;;;8.50;52.60;;;;;;4954847;28;20063;-61
2021/04/25 05:31:47;;;;;;;4.97;1.48;;;8.40;52.20;;;;;;4940785;28;20035;-61
2021/04/25 05:34:12;;;;;;;7.18;1.45;;;8.20;53.70;;;;;;4941026;28;20051;-61
2021/04/25 05:36:39;;;;;;;6.93;1.98;;;8.30;56.00;;;;;;4941245;28;20498;-61
2021/04/25 05:39:06;;;;;;;5.03;1.30;;;8.50;56.70;;;;;;4940469;28;20039;-61
2021/04/25 05:41:32;;;;;;;9.98;1.60;;;8.90;58.10;;;;;;4940662;28;20103;-60
2021/04/25 05:43:57;;;;;;;5.80;0.98;;;9.20;56.80;;;;;;4940577;28;20070;-60
2021/04/25 05:46:23;;;;;;;10.07;1.30;;;9.20;54.80;;;;;;4951308;28;20734;-61
2021/04/25 05:48:49;;;;;;;9.43;1.50;;;9.10;53.50;;;;;;4953578;28;20523;-61
2021/04/25 05:51:16;;;;;;;6.40;1.15;;;8.90;53.00;;;;;;4939949;28;20071;-60
2021/04/25 05:53:42;;;;;;;6.80;1.13;;;8.70;53.80;;;;;;4939469;28;20051;-61
2021/04/25 05:56:08;;;;;;;6.10;1.05;;;8.60;53.80;;;;;;4940830;28;20476;-61
2021/04/25 05:58:34;;;;;;;7.15;1.42;;;8.50;53.60;;;;;;4941868;28;20046;-61
2021/04/25 06:01:00;;;;;;;11.40;1.23;;;8.40;53.40;;;;;;4938867;28;20045;-61
2021/04/25 06:03:29;;;;;;;6.43;1.45;;;8.30;53.50;;;;;;4938181;28;20039;-61
2021/04/25 06:05:55;;;;;;;12.10;1.65;;;8.30;54.90;;;;;;4941527;28;20035;-61
2021/04/25 06:08:21;;;;;;;7.22;1.35;;;8.40;55.90;;;;;;4939467;28;20050;-61
2021/04/25 06:10:47;;;;;;;9.98;1.95;;;8.60;55.50;;;;;;4952694;28;20032;-61
2021/04/25 06:13:13;;;;;;;8.70;1.58;;;8.50;54.50;;;;;;4939855;28;20849;-62
2021/04/25 06:15:39;;;;;;;7.75;1.88;;;8.50;54.60;;;;;;4941513;28;20047;-61
2021/04/25 06:18:05;;;;;;;10.82;1.40;;;8.40;54.60;;;;;;4941811;28;20058;-61
2021/04/25 06:20:32;;;;;;;13.85;2.45;;;8.40;54.30;;;;;;4953171;28;20432;-62
2021/04/25 06:22:58;;;;;;;9.73;1.67;;;8.40;53.30;;;;;;4940049;28;20035;-60
2021/04/25 06:25:24;;;;;;;6.93;1.15;;;8.40;53.10;;;;;;4941749;28;20054;-61
2021/04/25 06:27:50;;;;;;;8.68;1.20;;;8.40;52.90;;;;;;4937686;28;20035;-61
2021/04/25 06:30:18;;;;;;;6.55;1.40;;;8.50;53.00;;;;;;4939894;28;20110;-61
2021/04/25 06:32:45;;;;;;;6.25;1.58;;;8.60;52.70;;;;;;4953048;28;20058;-61
2021/04/25 06:35:13;;;;;;;6.43;1.25;;;8.70;53.20;;;;;;4943477;28;20039;-61
2021/04/25 06:37:42;;;;;;;5.80;1.50;;;8.90;52.70;;;;;;4941404;28;20506;-61
2021/04/25 06:40:10;;;;;;;5.97;1.38;;;8.90;52.60;;;;;;4943418;28;20082;-61
2021/04/25 06:42:39;;;;;;;9.00;1.58;;;9.00;52.80;;;;;;4943220;28;20042;-60
2021/04/25 06:45:07;;;;;;;5.95;0.95;;;9.00;52.40;;;;;;4945025;28;20043;-60
2021/04/25 06:47:33;;;;;;;10.07;2.08;;;8.90;50.90;;;;;;4957478;28;20043;-63
2021/04/25 06:49:59;;;;;;;5.68;0.95;;;8.80;51.00;;;;;;4947372;28;20035;-58
2021/04/25 06:52:25;;;;;;;14.55;1.20;;;8.70;51.60;;;;;;4944692;28;20053;-58
2021/04/25 06:54:50;;;;;;;7.80;1.13;;;8.70;51.50;;;;;;4943115;28;20478;-60
2021/04/25 06:57:16;;;;;;;9.23;1.25;;;8.60;52.30;;;;;;4943832;28;21000;-59
2021/04/25 06:59:42;;;;;;;8.13;1.63;;;8.70;52.60;;;;;;4944065;28;20040;-58
2021/04/25 07:02:07;;;;;;;7.97;1.02;;;8.70;51.90;;;;;;4957577;28;20035;-58
2021/04/25 07:04:33;;;;;;;7.10;1.58;;;8.70;51.50;;;;;;4944219;28;20051;-58
2021/04/25 07:07:00;;;;;;;7.80;1.10;;;8.60;51.00;;;;;;4943243;28;20055;-58
2021/04/25 07:09:25;;;;;;;6.95;1.55;;;8.60;50.70;;;;;;4942052;28;20119;-58
2021/04/25 07:11:51;;;;;;;6.15;1.60;;;8.60;50.80;;;;;;4941984;28;20041;-58
2021/04/25 07:14:17;;;;;;;7.35;1.10;;;8.60;50.30;;;;;;4944004;28;20126;-58
2021/04/25 07:16:43;;;;;;;9.60;1.10;;;8.60;50.00;;;;;;4943009;28;20058;-57
2021/04/25 07:19:08;;;;;;;8.88;1.63;;;8.60;50.30;;;;;;4955763;28;20132;-58
2021/04/25 07:21:35;;;;;;;6.78;1.13;;;8.60;51.10;;;;;;4943005;28;20035;-58
2021/04/25 07:24:01;;;;;;;4.78;1.10;;;8.60;50.90;;;;;;4944466;28;22257;-58
2021/04/25 07:26:26;;;;;;;9.35;2.28;;;8.60;50.90;;;;;;4942473;28;20044;-58
2021/04/25 07:28:52;;;;;;;12.45;2.50;;;8.60;51.30;;;;;;4943505;28;20039;-58
2021/04/25 07:31:18;;;;;;;6.68;1.00;;;8.50;51.10;;;;;;4940444;28;20496;-58
2021/04/25 07:33:44;;;;;;;7.93;1.38;;;8.60;52.00;;;;;;4943056;28;20082;-61
2021/04/25 07:36:10;;;;;;;8.13;1.40;;;8.60;52.20;;;;;;4942991;28;20047;-61
2021/04/25 07:38:37;;;;;;;7.75;1.65;;;8.70;51.70;;;;;;4939030;28;20082;-62
2021/04/25 07:41:03;;;;;;;4.38;1.02;;;8.70;51.80;;;;;;4943485;28;20054;-62
2021/04/25 07:43:30;;;;;;;6.47;0.90;;;8.70;52.00;;;;;;4943247;28;20043;-59
2021/04/25 07:45:56;;;;;;;7.47;0.90;;;8.70;52.00;;;;;;4942293;28;20039;-58
2021/04/25 07:48:21;;;;;;;8.25;1.42;;;8.80;51.90;;;;;;4943408;28;20036;-62
2021/04/25 07:50:47;;;;;;;5.28;1.23;;;8.80;51.40;;;;;;4942777;28;20095;-61
2021/04/25 07:53:15;;;;;;;9.38;1.25;;;8.70;51.40;;;;;;4955542;28;20043;-62
2021/04/25 07:55:41;;;;;;;5.93;0.95;;;8.80;51.50;;;;;;4942868;28;20042;-62
2021/04/25 07:58:06;;;;;;;5.20;1.30;;;8.70;51.10;;;;;;4955371;28;20059;-61
2021/04/25 08:00:32;;;;;;;9.32;1.42;;;8.70;51.00;;;;;;4940348;28;20047;-63
2021/04/25 08:02:58;;;;;;;6.82;2.42;;;8.80;50.80;;;;;;4956179;28;20368;-65
2021/04/25 08:05:24;;;;;;;7.78;1.30;;;8.80;50.70;;;;;;4944120;28;20043;-63
2021/04/25 08:07:53;;;;;;;7.22;1.00;;;8.80;51.10;;;;;;4940824;28;20126;-64
2021/04/25 08:10:18;;;;;;;8.45;1.25;;;8.80;50.80;;;;;;4942030;28;20138;-65
2021/04/25 08:12:44;;;;;;;13.50;1.60;;;8.70;50.10;;;;;;4942697;28;20038;-66
2021/04/25 08:15:10;;;;;;;12.95;2.20;;;8.70;50.10;;;;;;4942141;28;20036;-63
2021/04/25 08:17:36;;;;;;;7.03;1.55;;;8.70;50.30;;;;;;4955308;28;20140;-63
2021/04/25 08:20:05;;;;;;;5.35;1.60;;;8.70;50.20;;;;;;4942030;28;20039;-65
2021/04/25 08:22:30;;;;;;;6.75;1.20;;;8.70;49.80;;;;;;4941667;28;20403;-63
2021/04/25 08:24:56;;;;;;;8.63;1.30;;;8.70;49.50;;;;;;4941172;28;20039;-63
2021/04/25 08:27:22;;;;;;;12.50;1.80;;;8.80;49.00;;;;;;4940044;28;20221;-67
2021/04/25 08:29:48;;;;;;;3.83;1.00;;;8.80;49.10;;;;;;4939199;28;22275;-63
2021/04/25 08:32:14;;;;;;;6.35;1.55;;;8.90;48.90;;;;;;4941569;28;20051;-60
2021/04/25 08:34:39;;;;;;;10.15;1.48;;;9.00;48.10;;;;;;4955869;28;20075;-60
2021/04/25 08:37:05;;;;;;;8.82;1.88;;;9.00;47.80;;;;;;4941981;28;20364;-61
2021/04/25 08:39:31;;;;;;;6.75;1.40;;;9.00;47.60;;;;;;4942903;28;20054;-62
2021/04/25 08:41:57;;;;;;;8.52;1.30;;;9.00;47.60;;;;;;4942919;28;20598;-64
2021/04/25 08:44:24;;;;;;;4.82;1.00;;;9.10;47.80;;;;;;4955045;28;20070;-65
2021/04/25 08:46:51;;;;;;;8.95;1.23;;;9.20;48.10;;;;;;4941645;28;20107;-66
2021/04/25 08:49:18;;;;;;;7.03;1.50;;;9.40;47.70;;;;;;4941530;28;20039;-67
2021/04/25 08:51:44;;;;;;;12.52;1.67;;;9.50;47.20;;;;;;4940917;28;20039;-68
2021/04/25 08:54:13;;;;;;;5.97;1.38;;;9.60;47.70;;;;;;4941281;28;20598;-62
2021/04/25 08:56:39;;;;;;;9.25;2.30;;;9.60;47.30;;;;;;4938990;28;20036;-63
2021/04/25 08:59:06;;;;;;;9.75;1.50;;;9.70;46.40;;;;;;4941709;28;20046;-68
2021/04/25 09:01:31;;;;;;;5.13;1.30;;;9.70;46.50;;;;;;4956009;28;20934;-64
2021/04/25 09:03:57;;;;;;;10.05;2.28;;;9.80;47.60;;;;;;4941612;28;20047;-68
2021/04/25 09:06:23;;;;;;;9.38;1.50;;;9.80;48.40;;;;;;4941223;28;20054;-67
2021/04/25 09:08:53;;;;;;;12.25;1.92;;;9.90;48.70;;;;;;4941814;28;20055;-65
2021/04/25 09:11:36;;;;;;;7.82;1.95;;;9.90;49.20;;;;;;4941048;28;20039;-63
2021/04/25 09:14:22;;;;;;;10.60;1.55;;;9.90;49.50;;;;;;4954935;28;20047;-63
2021/04/25 09:16:54;;;;;;;9.73;1.73;;;9.90;50.20;;;;;;4940158;28;20063;-60
2021/04/25 09:19:43;;;;;;;6.50;1.80;;;10.00;50.40;;;;;;4941253;28;20056;-59
2021/04/25 09:22:09;;;;;;;9.05;1.58;;;10.10;50.10;;;;;;4939471;28;20040;-60
2021/04/25 09:24:35;;;;;;;10.70;2.13;;;10.10;50.00;;;;;;4955288;28;20054;-62
2021/04/25 09:27:00;;;;;;;9.07;1.58;;;10.10;50.10;;;;;;4940609;28;20031;-63
2021/04/25 09:29:45;;;;;;;13.32;1.58;;;10.10;50.10;;;;;;4940104;28;20463;-61
2021/04/25 09:32:19;;;;;;;8.10;1.77;;;10.20;50.40;;;;;;4941407;28;20043;-62
2021/04/25 09:34:45;;;;;;;9.90;1.60;;;10.20;50.70;;;;;;4939089;28;20130;-62
2021/04/25 09:37:13;;;;;;;3.67;1.30;;;10.30;50.50;;;;;;4941164;28;20043;-61
2021/04/25 09:39:39;;;;;;;7.35;1.98;;;10.40;50.80;;;;;;4941527;28;20078;-61
2021/04/25 09:42:07;;;;;;;6.00;1.13;;;10.50;50.60;;;;;;4954792;28;20064;-61
2021/04/25 09:44:33;;;;;;;7.88;1.48;;;10.50;50.70;;;;;;4935319;28;20047;-61
2021/04/25 09:47:02;;;;;;;14.07;4.53;;;10.50;50.70;;;;;;4939222;28;20042;-61
2021/04/25 09:49:49;;;;;;;8.25;1.83;;;10.60;50.80;;;;;;4940914;28;22317;-62
2021/04/25 09:52:27;;;;;;;7.60;1.48;;;10.70;50.80;;;;;;4940098;28;20043;-60
2021/04/25 09:55:16;;;;;;;8.57;1.88;;;10.80;50.70;;;;;;4940706;28;20124;-59
2021/04/25 09:57:43;;;;;;;8.25;1.77;;;10.90;50.90;;;;;;4941498;28;20044;-61
2021/04/25 10:00:09;;;;;;;8.23;1.98;;;10.90;50.40;;;;;;4940326;28;20039;-58
2021/04/25 10:02:55;;;;;;;7.30;1.20;;;11.10;51.00;;;;;;4953061;28;20042;-58
2021/04/25 10:05:22;;;;;;;5.25;1.40;;;11.50;50.40;;;;;;4940825;28;20626;-63
2021/04/25 10:07:47;;;;;;;16.70;2.25;;;11.80;50.40;;;;;;4940739;28;20051;-64
2021/04/25 10:10:19;;;;;;;5.55;2.25;;;12.30;51.60;;;;;;4939322;28;20514;-66
2021/04/25 10:12:48;;;;;;;9.50;2.13;;;12.70;53.40;;;;;;4941165;28;20047;-65
2021/04/25 10:15:16;;;;;;;10.13;1.73;;;13.20;50.50;;;;;;4942271;28;20130;-64
2021/04/25 10:17:43;;;;;;;6.85;1.83;;;13.40;49.90;;;;;;4937421;28;20174;-64
2021/04/25 10:20:10;;;;;;;6.32;2.10;;;13.60;50.00;;;;;;4940009;28;20111;-64
2021/04/25 10:22:41;;;;;;;12.55;2.15;;;13.90;50.30;;;;;;4940140;28;20044;-67
2021/04/25 10:25:10;;;;;;;4.72;1.70;;;14.20;47.20;;;;;;4941465;28;20043;-64
2021/04/25 10:27:38;;;;;;;5.80;1.88;;;14.40;49.20;;;;;;4953964;28;20043;-65
2021/04/25 10:30:06;;;;;;;9.02;2.00;;;14.60;47.60;;;;;;4939371;28;20051;-68
2021/04/25 10:32:32;;;;;;;12.00;2.55;;;14.70;48.80;;;;;;4940544;28;20035;-59
2021/04/25 10:35:12;;;;;;;9.35;2.35;;;14.90;49.80;;;;;;4941182;28;20139;-58
2021/04/25 10:37:40;;;;;;;10.10;2.10;;;15.20;50.90;;;;;;4940132;28;20591;-59
2021/04/25 10:40:32;;;;;;;9.85;2.80;;;15.50;49.90;;;;;;4939686;28;20620;-60
2021/04/25 10:43:00;;;;;;;8.10;2.67;;;15.90;48.50;;;;;;4942802;28;20484;-59
2021/04/25 10:45:28;;;;;;;7.35;2.45;;;16.10;49.80;;;;;;4940188;28;20044;-59
2021/04/25 10:48:23;;;;;;;6.43;2.10;;;16.10;49.60;;;;;;4936538;28;20094;-59
2021/04/25 10:50:55;;;;;;;6.82;2.03;;;16.30;48.40;;;;;;4939466;28;20055;-59
2021/04/25 10:53:27;;;;;;;6.32;1.83;;;16.30;49.30;;;;;;4939896;28;20094;-59
2021/04/25 10:56:15;;;;;;;10.65;2.13;;;16.30;48.80;;;;;;4939720;28;20426;-59
2021/04/25 10:58:46;;;;;;;9.40;1.92;;;16.20;45.90;;;;;;4941555;28;20035;-58
2021/04/25 11:01:38;;;;;;;7.65;2.55;;;16.20;46.00;;;;;;4943063;28;20063;-59
2021/04/25 11:04:04;;;;;;;7.07;2.17;;;16.20;47.70;;;;;;4939931;28;20122;-58
2021/04/25 11:06:30;;;;;;;9.52;2.88;;;16.40;50.40;;;;;;4939724;28;20051;-59
2021/04/25 11:08:57;;;;;;;8.70;2.22;;;16.40;46.70;;;;;;4940790;28;20044;-59
2021/04/25 11:11:37;;;;;;;6.72;2.35;;;16.10;44.10;;;;;;4940000;28;20098;-59
2021/04/25 11:14:08;;;;;;;5.40;2.40;;;16.00;45.40;;;;;;4936418;28;20059;-58
2021/04/25 11:16:35;;;;;;;9.75;1.77;;;16.10;49.30;;;;;;4952983;28;20089;-58
2021/04/25 11:19:09;;;;;;;7.85;1.77;;;16.00;44.50;;;;;;4939463;28;20509;-58
2021/04/25 11:21:46;;;;;;;9.77;1.98;;;16.10;45.20;;;;;;4943133;28;20039;-58
2021/04/25 11:24:12;;;;;;;6.50;1.58;;;16.00;45.70;;;;;;4956562;28;20059;-58
2021/04/25 11:26:40;;;;;;;7.43;1.60;;;15.70;43.60;;;;;;4944713;28;20357;-58
2021/04/25 11:29:07;;;;;;;6.80;1.75;;;15.50;42.40;;;;;;4945244;28;20714;-58
2021/04/25 11:31:57;;;;;;;8.73;1.80;;;15.30;42.50;;;;;;4942461;28;20043;-59
2021/04/25 11:34:25;;;;;;;7.22;1.92;;;15.20;42.20;;;;;;4942678;28;20039;-59
2021/04/25 11:37:19;;;;;;;9.73;2.08;;;15.10;42.80;;;;;;4943569;28;20106;-59
2021/04/25 11:39:46;;;;;;;7.65;1.70;;;15.00;42.30;;;;;;4943475;28;20035;-58
2021/04/25 11:42:22;;;;;;;5.72;1.25;;;14.80;41.90;;;;;;4941674;28;20065;-66
2021/04/25 11:44:48;;;;;;;6.68;1.88;;;14.80;41.20;;;;;;4942932;28;20047;-65
2021/04/25 11:47:16;;;;;;;7.13;1.80;;;14.80;41.50;;;;;;4943379;28;20103;-66
2021/04/25 11:49:48;;;;;;;8.52;1.67;;;14.60;41.00;;;;;;4942006;28;20135;-66
2021/04/25 11:52:26;;;;;;;6.80;1.92;;;14.60;41.50;;;;;;4953686;28;20081;-66
2021/04/25 11:54:57;;;;;;;7.90;2.33;;;14.60;42.50;;;;;;4941513;28;20601;-65
2021/04/25 11:57:25;;;;;;;4.28;1.45;;;14.70;43.20;;;;;;4942350;28;20379;-66
2021/04/25 11:59:53;;;;;;;9.57;1.88;;;14.50;43.70;;;;;;4943362;28;20035;-63
2021/04/25 12:02:19;;;;;;;7.47;1.73;;;14.60;42.90;;;;;;4942152;28;20803;-65
2021/04/25 12:04:49;;;;;;;9.93;1.60;;;14.60;42.00;;;;;;4943285;28;20043;-63
2021/04/25 12:07:38;;;;;;;7.30;1.30;;;14.60;42.70;;;;;;4943536;28;20035;-63
2021/04/25 12:10:24;;;;;;;7.50;2.00;;;14.50;41.40;;;;;;4941864;28;20107;-63
2021/04/25 12:13:09;;;;;;;8.38;1.50;;;14.60;43.10;;;;;;4941992;28;20050;-62
2021/04/25 12:15:58;;;;;;;8.55;2.05;;;14.60;42.80;;;;;;4941443;28;20182;-61
2021/04/25 12:18:36;;;;;;;7.55;1.70;;;14.60;41.00;;;;;;4942532;28;20043;-61
2021/04/25 12:21:23;;;;;;;7.95;3.25;;;14.60;42.40;;;;;;4954110;28;20039;-61
2021/04/25 12:23:54;;;;;;;10.07;1.13;;;14.60;41.90;;;;;;4942175;28;20129;-62
2021/04/25 12:26:24;;;;;;;4.00;1.77;;;14.60;41.60;;;;;;4942889;28;20048;-63
2021/04/25 12:28:53;;;;;;;8.02;1.70;;;14.40;42.50;;;;;;4941227;28;20047;-61
2021/04/25 12:31:21;;;;;;;6.57;1.63;;;14.30;42.60;;;;;;4941168;28;20039;-61
2021/04/25 12:33:54;;;;;;;7.97;1.70;;;14.30;42.40;;;;;;4941542;28;20167;-62
2021/04/25 12:36:22;;;;;;;6.95;1.48;;;14.40;42.00;;;;;;4942384;28;20039;-63
2021/04/25 12:39:03;;;;;;;5.47;1.35;;;14.20;42.20;;;;;;4941010;28;20047;-62
2021/04/25 12:41:48;;;;;;;8.85;1.67;;;14.20;43.00;;;;;;4942114;28;20046;-62
2021/04/25 12:44:16;;;;;;;12.18;1.83;;;14.10;41.40;;;;;;4942399;28;20043;-62
2021/04/25 12:46:57;;;;;;;12.63;2.30;;;13.80;41.40;;;;;;4941165;28;20431;-61
2021/04/25 12:49:33;;;;;;;7.22;1.75;;;13.70;42.10;;;;;;4939541;28;20124;-61
2021/04/25 12:51:58;;;;;;;11.02;1.80;;;13.80;44.10;;;;;;4954132;28;20119;-61
2021/04/25 12:54:27;;;;;;;5.55;1.70;;;13.90;43.00;;;;;;4939804;28;20475;-62
2021/04/25 12:56:54;;;;;;;7.43;1.27;;;13.90;43.40;;;;;;4941244;28;20043;-61